createdAt,value
2024-04-15T05:00:13.373Z,100652.31
2024-04-15T05:05:48.009Z,100649.00
2024-04-15T05:10:54.836Z,100658.13
2024-04-15T05:22:32.145Z,100649.97
2024-04-15T05:28:03.295Z,100643.16
2024-04-15T05:33:55.950Z,100631.97
2024-04-15T05:55:25.992Z,100625.44
2024-04-15T06:07:21.452Z,100597.81
2024-04-15T06:12:41.221Z,100581.56
2024-04-15T06:18:13.900Z,100572.84
2024-04-15T06:23:19.716Z,100555.78
2024-04-15T06:28:39.392Z,100551.34
2024-04-15T06:40:44.675Z,100518.38
2024-04-15T11:36:49.175Z,99901.19
2024-04-15T11:42:25.778Z,99880.66
2024-04-15T11:47:31.115Z,99873.03
2024-04-15T11:52:39.956Z,99859.63
2024-04-15T11:57:45.762Z,99853.28
2024-04-15T12:02:51.786Z,99840.88
2024-04-15T12:08:00.887Z,99823.84
2024-04-15T12:13:06.119Z,99804.66
2024-04-15T12:18:11.906Z,99791.66
2024-04-15T12:23:20.072Z,99783.19
2024-04-15T12:28:31.680Z,99763.34
2024-04-15T12:33:42.676Z,99747.41
2024-04-15T12:38:52.835Z,99743.13
2024-04-15T12:44:00.217Z,99725.69
2024-04-15T12:49:11.343Z,99711.34
2024-04-15T12:54:21.439Z,99720.22
2024-04-15T12:59:26.752Z,99702.66
2024-04-15T13:04:31.896Z,99695.09
2024-04-15T13:09:58.257Z,99684.41
2024-04-15T13:15:06.045Z,99656.63
2024-04-15T13:32:20.291Z,99603.66
2024-04-15T13:37:32.208Z,99585.50
2024-04-15T13:43:30.042Z,99574.75
2024-04-15T13:48:37.847Z,99563.72
2024-04-15T14:00:06.823Z,99531.47
2024-04-15T14:05:22.867Z,99527.19
2024-04-15T14:10:31.642Z,99504.69
2024-04-15T14:15:40.608Z,99519.41
2024-04-15T14:20:46.024Z,99501.44
2024-04-15T14:25:52.061Z,99486.94
2024-04-15T14:31:00.110Z,99465.63
2024-04-15T14:36:08.952Z,99452.31
2024-04-15T14:41:14.583Z,99448.63
2024-04-15T14:46:22.573Z,99439.69
2024-04-15T14:51:27.808Z,99435.25
2024-04-15T14:56:42.139Z,99426.22
2024-04-15T15:01:49.900Z,99406.66
2024-04-15T15:06:55.276Z,99399.53
2024-04-15T15:12:00.435Z,99406.41
2024-04-15T15:17:08.080Z,99401.66
2024-04-15T15:22:14.311Z,99400.56
2024-04-15T15:27:19.679Z,99376.72
2024-04-15T15:32:27.359Z,99380.25
2024-04-15T15:37:32.754Z,99371.66
2024-04-15T15:42:37.726Z,99368.28
2024-04-15T15:47:47.602Z,99358.28
2024-04-15T15:52:52.662Z,99360.66
2024-04-15T15:57:58.369Z,99353.03
2024-04-15T16:03:11.397Z,99349.44
2024-04-15T16:08:16.575Z,99353.06
2024-04-15T16:13:22.065Z,99329.53
2024-04-15T16:18:29.751Z,99295.09
2024-04-15T16:23:35.132Z,99293.56
2024-04-15T16:28:46.542Z,99275.53
2024-04-15T16:33:54.504Z,99259.78
2024-04-15T16:38:59.838Z,99258.56
2024-04-15T16:44:04.971Z,99243.69
2024-04-15T16:49:12.626Z,99236.22
2024-04-15T16:54:17.685Z,99232.34
2024-04-15T16:59:22.681Z,99227.00
2024-04-15T17:04:30.339Z,99224.44
2024-04-15T17:09:35.387Z,99217.19
2024-04-15T17:14:40.614Z,99184.72
2024-04-15T17:19:48.523Z,99173.25
2024-04-15T17:24:53.868Z,99163.50
2024-04-15T17:29:59.263Z,99162.44
2024-04-15T17:35:07.243Z,99154.81
2024-04-15T17:40:13.545Z,99145.47
2024-04-15T17:45:18.895Z,99135.38
2024-04-15T17:50:27.360Z,99114.47
2024-04-15T17:55:34.759Z,99098.91
2024-04-15T18:00:39.914Z,99101.63
2024-04-15T18:05:47.682Z,99103.81
2024-04-15T18:10:53.228Z,99099.28
2024-04-15T18:15:58.482Z,99103.91
2024-04-15T18:21:06.647Z,99106.88
2024-04-15T18:26:13.252Z,99092.47
2024-04-15T18:31:19.231Z,99101.44
2024-04-15T18:36:30.720Z,99111.38
2024-04-15T18:41:35.970Z,99155.19
2024-04-15T18:46:41.292Z,99187.38
2024-04-15T18:51:49.492Z,99203.09
2024-04-15T18:56:54.563Z,99205.13
2024-04-15T19:01:59.571Z,99202.56
2024-04-15T19:07:07.684Z,99207.06
2024-04-15T19:12:12.557Z,99208.81
2024-04-15T19:17:19.329Z,99224.88
2024-04-15T19:22:27.189Z,99212.50
2024-04-15T19:27:32.342Z,99231.84
2024-04-15T19:32:37.515Z,99244.56
2024-04-15T19:37:45.296Z,99243.44
2024-04-15T19:42:50.484Z,99235.69
2024-04-15T19:48:35.867Z,99231.63
2024-04-15T20:00:40.514Z,99234.34
2024-04-15T20:05:45.594Z,99237.34
2024-04-15T20:10:50.826Z,99230.13
2024-04-15T20:15:58.684Z,99233.66
2024-04-15T20:21:07.950Z,99233.72
2024-04-15T20:26:17.678Z,99230.13
2024-04-15T20:39:35.922Z,99231.47
2024-04-15T20:44:59.105Z,99231.44
2024-04-15T20:50:29.488Z,99219.16
2024-04-15T20:55:46.157Z,99232.78
2024-04-15T21:00:52.969Z,99235.19
2024-04-15T21:06:00.205Z,99237.25
2024-04-15T21:11:08.171Z,99237.50
2024-04-15T21:16:13.275Z,99237.59
2024-04-15T21:21:18.257Z,99239.31
2024-04-15T21:26:25.932Z,99248.41
2024-04-15T21:31:31.042Z,99242.78
2024-04-15T21:36:37.087Z,99246.59
2024-04-15T21:41:44.782Z,99240.41
2024-04-15T21:46:49.899Z,99250.41
2024-04-15T21:51:54.916Z,99248.41
2024-04-15T21:57:02.588Z,99254.00
2024-04-15T22:02:08.082Z,99263.94
2024-04-15T22:07:13.146Z,99257.16
2024-04-15T22:12:20.795Z,99257.13
2024-04-15T22:17:29.024Z,99252.25
2024-04-15T22:22:33.957Z,99251.03
2024-04-15T22:27:41.666Z,99257.50
2024-04-15T22:32:46.778Z,99254.34
2024-04-15T22:37:52.152Z,99256.53
2024-04-15T22:42:59.839Z,99254.75
2024-04-15T22:48:06.229Z,99264.63
2024-04-15T22:53:11.263Z,99261.69
2024-04-15T22:58:18.997Z,99264.38
2024-04-15T23:03:24.182Z,99275.72
2024-04-15T23:08:29.349Z,99278.75
2024-04-15T23:13:37.066Z,99273.22
2024-04-15T23:18:44.631Z,99276.84
2024-04-15T23:23:49.689Z,99282.28
2024-04-15T23:28:57.482Z,99277.88
2024-04-15T23:34:02.576Z,99270.72
2024-04-15T23:39:07.629Z,99263.63
2024-04-15T23:44:15.319Z,99275.25
2024-04-15T23:49:42.027Z,99267.91
2024-04-15T23:55:06.072Z,99267.72
